createdAt,value
2019-01-31T00:00:40.587Z,0.82
2019-01-31T00:03:36.957Z,1.47
2019-01-31T00:06:19.088Z,0.80
2019-01-31T00:09:20.411Z,0.50
2019-01-31T00:12:40.720Z,1.20
2019-01-31T00:15:32.024Z,1.25
2019-01-31T00:18:17.485Z,0.93
2019-01-31T00:21:46.829Z,0.70
2019-01-31T00:24:42.252Z,0.90
2019-01-31T00:27:47.222Z,1.32
2019-01-31T00:30:39.779Z,1.40
2019-01-31T00:33:50.471Z,1.33
2019-01-31T00:36:56.687Z,0.60
2019-01-31T00:40:12.800Z,1.20
2019-01-31T00:43:37.170Z,0.67
2019-01-31T00:46:40.919Z,1.17
2019-01-31T00:49:51.522Z,1.23
2019-01-31T00:52:46.111Z,1.40
2019-01-31T00:55:33.672Z,1.33
2019-01-31T00:58:33.976Z,1.37
2019-01-31T01:01:51.380Z,1.27
2019-01-31T01:05:08.843Z,1.45
2019-01-31T01:07:49.008Z,1.40
2019-01-31T01:11:12.651Z,1.82
2019-01-31T01:14:35.955Z,1.40
2019-01-31T01:17:27.955Z,1.20
2019-01-31T01:20:23.839Z,1.95
2019-01-31T01:23:38.555Z,1.60
2019-01-31T01:26:38.688Z,1.60
2019-01-31T01:29:36.848Z,2.03
2019-01-31T01:32:33.755Z,1.93
2019-01-31T01:35:33.915Z,1.97
2019-01-31T01:38:31.715Z,1.70
2019-01-31T01:41:30.543Z,2.47
2019-01-31T01:44:37.930Z,2.30
2019-01-31T01:47:23.488Z,1.05
2019-01-31T01:50:10.703Z,1.82
2019-01-31T01:53:18.619Z,1.40
2019-01-31T01:56:29.949Z,1.73
2019-01-31T01:59:28.131Z,2.12
2019-01-31T02:02:45.406Z,2.07
2019-01-31T02:05:44.683Z,1.85
2019-01-31T02:08:52.275Z,1.98
2019-01-31T02:12:07.903Z,1.50
2019-01-31T02:14:59.276Z,2.43
2019-01-31T02:17:54.064Z,2.07
2019-01-31T02:21:29.751Z,2.05
2019-01-31T02:24:32.057Z,2.30
2019-01-31T02:27:49.436Z,0.80
2019-01-31T02:30:56.837Z,1.88
2019-01-31T02:34:03.628Z,2.15
2019-01-31T02:36:51.029Z,2.13
2019-01-31T02:40:01.389Z,1.80
2019-01-31T02:42:59.140Z,1.50
2019-01-31T02:46:22.760Z,1.50
2019-01-31T02:49:43.711Z,1.67
2019-01-31T02:52:36.996Z,2.13
2019-01-31T02:55:46.919Z,1.60
2019-01-31T02:58:30.891Z,2.20
2019-01-31T03:01:17.181Z,1.22
2019-01-31T03:04:39.864Z,1.57
2019-01-31T03:08:18.751Z,2.33
2019-01-31T03:11:04.767Z,0.80
2019-01-31T03:13:49.751Z,1.85
2019-01-31T03:16:55.619Z,1.62
2019-01-31T03:20:02.715Z,1.27
2019-01-31T03:23:00.887Z,1.47
2019-01-31T03:26:01.359Z,1.67
2019-01-31T03:29:03.710Z,2.10
2019-01-31T03:32:12.608Z,2.30
2019-01-31T03:35:07.911Z,0.90
2019-01-31T03:38:04.988Z,1.57
2019-01-31T03:41:16.403Z,1.10
2019-01-31T03:44:14.015Z,1.37
2019-01-31T03:47:31.444Z,1.80
2019-01-31T03:50:21.410Z,1.63
2019-01-31T03:53:21.643Z,1.70
2019-01-31T03:56:05.293Z,1.33
2019-01-31T03:59:22.397Z,1.98
2019-01-31T04:02:24.075Z,1.47
2019-01-31T04:05:09.039Z,1.67
2019-01-31T04:07:39.162Z,2.05
2019-01-31T04:10:18.803Z,1.05
2019-01-31T04:12:41.195Z,2.12
2019-01-31T04:15:11.650Z,1.30
2019-01-31T04:17:42.587Z,1.55
2019-01-31T04:20:12.728Z,1.77
2019-01-31T04:22:42.851Z,2.03
2019-01-31T04:25:13.183Z,1.20
2019-01-31T04:27:43.300Z,0.80
2019-01-31T04:30:15.231Z,1.17
2019-01-31T04:32:46.334Z,0.93
2019-01-31T04:35:16.455Z,0.78
2019-01-31T04:37:46.583Z,1.02
2019-01-31T04:40:16.774Z,1.15
2019-01-31T04:42:46.895Z,2.00
2019-01-31T04:45:17.092Z,0.73
2019-01-31T04:47:47.215Z,0.72
2019-01-31T04:50:17.540Z,0.93
2019-01-31T04:52:47.678Z,0.80
2019-01-31T04:55:17.836Z,0.88
2019-01-31T04:57:47.955Z,0.87
2019-01-31T05:00:20.213Z,0.88
2019-01-31T05:02:50.408Z,1.20
2019-01-31T05:05:20.571Z,0.53
2019-01-31T05:07:50.700Z,1.42
2019-01-31T05:10:20.931Z,1.30
2019-01-31T05:12:51.049Z,8.85
2019-01-31T05:15:21.221Z,3.90
2019-01-31T05:17:52.259Z,1.00
2019-01-31T05:20:22.421Z,1.70
2019-01-31T05:22:52.546Z,0.93
2019-01-31T05:25:26.558Z,0.80
2019-01-31T05:27:56.687Z,1.60
2019-01-31T05:30:26.840Z,1.77
2019-01-31T05:32:59.003Z,1.42
2019-01-31T05:35:29.327Z,1.35
2019-01-31T05:37:59.770Z,0.88
2019-01-31T05:40:30.912Z,1.33
2019-01-31T05:43:01.044Z,0.90
2019-01-31T05:45:31.189Z,2.07
2019-01-31T05:48:01.307Z,0.83
2019-01-31T05:50:31.446Z,1.70
2019-01-31T05:53:01.578Z,0.70
2019-01-31T05:55:31.715Z,1.70
2019-01-31T05:58:01.853Z,0.82
2019-01-31T06:00:36.121Z,0.42
2019-01-31T06:03:06.252Z,0.67
2019-01-31T06:05:36.395Z,1.12
2019-01-31T06:08:06.519Z,1.25
2019-01-31T06:10:36.740Z,1.52
2019-01-31T06:13:06.871Z,1.50
2019-01-31T06:15:37.923Z,0.47
2019-01-31T06:18:08.135Z,1.05
2019-01-31T06:20:38.291Z,1.20
2019-01-31T06:23:08.433Z,2.17
2019-01-31T06:25:38.552Z,2.03
2019-01-31T06:28:08.699Z,2.27
2019-01-31T06:30:38.827Z,8.47
2019-01-31T06:33:09.965Z,9.48
2019-01-31T06:35:40.679Z,10.23
2019-01-31T06:38:10.839Z,10.88
2019-01-31T06:40:40.970Z,9.93
2019-01-31T06:43:12.175Z,12.30
2019-01-31T06:45:42.339Z,13.03
2019-01-31T06:48:12.607Z,12.50
2019-01-31T06:50:43.649Z,12.70
2019-01-31T06:53:13.795Z,12.15
2019-01-31T06:55:43.928Z,2.97
2019-01-31T06:58:14.071Z,3.13
2019-01-31T07:00:44.655Z,1.67
2019-01-31T07:03:15.167Z,2.75
2019-01-31T07:05:45.968Z,3.72
2019-01-31T07:08:16.104Z,2.40
2019-01-31T07:10:46.235Z,6.85
2019-01-31T07:13:16.371Z,5.58
2019-01-31T07:15:46.511Z,6.00
2019-01-31T07:18:16.655Z,4.40
2019-01-31T07:20:46.772Z,3.12
2019-01-31T07:23:16.924Z,2.50
2019-01-31T07:25:47.034Z,4.17
2019-01-31T07:28:21.263Z,3.45
2019-01-31T07:30:51.383Z,4.70
2019-01-31T07:33:21.519Z,4.42
2019-01-31T07:35:52.152Z,4.93
2019-01-31T07:38:22.576Z,4.20
2019-01-31T07:40:52.726Z,4.62
2019-01-31T07:43:22.871Z,3.17
2019-01-31T07:45:52.987Z,4.55
2019-01-31T07:48:23.135Z,3.52
2019-01-31T07:50:53.251Z,3.73
2019-01-31T07:53:24.215Z,6.08
2019-01-31T07:55:54.339Z,5.90
2019-01-31T07:58:25.489Z,4.08
2019-01-31T08:00:55.555Z,3.85
2019-01-31T08:03:25.682Z,4.60
2019-01-31T08:05:55.839Z,3.42
2019-01-31T08:08:27.235Z,5.58
2019-01-31T08:10:57.379Z,4.90
2019-01-31T08:13:27.515Z,2.22
2019-01-31T08:15:57.646Z,2.37
2019-01-31T08:18:27.777Z,3.87
2019-01-31T08:20:58.006Z,3.33
2019-01-31T08:23:28.116Z,4.00
2019-01-31T08:25:58.318Z,2.40
2019-01-31T08:28:29.352Z,3.30
2019-01-31T08:30:59.559Z,3.05
2019-01-31T08:33:29.728Z,2.60
2019-01-31T08:36:00.139Z,3.67
2019-01-31T08:38:30.293Z,4.37
2019-01-31T08:41:01.498Z,3.67
2019-01-31T08:43:31.707Z,4.55
2019-01-31T08:46:01.909Z,2.27
2019-01-31T08:48:32.972Z,2.20
2019-01-31T08:51:03.104Z,2.58
2019-01-31T08:53:33.296Z,3.10
2019-01-31T08:56:04.443Z,3.10
2019-01-31T08:58:34.559Z,3.60
2019-01-31T09:01:04.707Z,2.83
2019-01-31T09:03:35.659Z,3.95
2019-01-31T09:06:06.291Z,2.60
2019-01-31T09:08:37.392Z,1.57
2019-01-31T09:11:07.535Z,2.90
2019-01-31T09:13:38.198Z,2.95
2019-01-31T09:16:08.491Z,2.62
2019-01-31T09:18:38.612Z,1.92
2019-01-31T09:21:43.187Z,1.80
2019-01-31T09:25:12.044Z,3.17
2019-01-31T09:28:22.311Z,2.20
2019-01-31T09:31:08.659Z,2.05
2019-01-31T09:34:06.180Z,4.00
2019-01-31T09:37:20.351Z,2.60
2019-01-31T09:40:00.859Z,2.65
2019-01-31T09:42:45.735Z,1.73
2019-01-31T09:45:40.927Z,2.70
2019-01-31T09:48:49.993Z,1.35
2019-01-31T09:52:16.007Z,2.80
2019-01-31T09:55:01.434Z,2.70
2019-01-31T09:58:15.807Z,2.62
2019-01-31T10:01:30.644Z,1.50
2019-01-31T10:04:18.355Z,2.63
2019-01-31T10:07:23.791Z,2.05
2019-01-31T10:10:18.680Z,2.72
2019-01-31T10:13:08.475Z,2.72
2019-01-31T10:16:08.768Z,2.33
2019-01-31T10:19:25.944Z,1.50
2019-01-31T10:22:18.951Z,2.80
2019-01-31T10:25:15.003Z,1.82
2019-01-31T10:28:08.955Z,2.70
2019-01-31T10:31:20.308Z,2.52
2019-01-31T10:34:33.292Z,3.25
2019-01-31T10:37:44.624Z,2.80
2019-01-31T10:40:51.514Z,1.20
2019-01-31T10:44:00.317Z,2.52
2019-01-31T10:47:03.835Z,2.70
2019-01-31T10:50:19.838Z,2.03
2019-01-31T10:53:36.727Z,2.20
2019-01-31T10:57:02.923Z,2.08
2019-01-31T10:59:46.781Z,2.40
2019-01-31T11:03:05.062Z,2.90
2019-01-31T11:06:31.013Z,2.70
2019-01-31T11:09:35.383Z,2.92
2019-01-31T11:13:00.615Z,2.83
2019-01-31T11:15:44.559Z,2.92
2019-01-31T11:18:43.939Z,1.20
2019-01-31T11:21:44.487Z,2.33
2019-01-31T11:24:47.107Z,1.80
2019-01-31T11:27:51.563Z,2.95
2019-01-31T11:31:02.021Z,1.67
2019-01-31T11:33:59.623Z,2.17
2019-01-31T11:37:13.019Z,2.10
2019-01-31T11:40:12.663Z,1.70
2019-01-31T11:43:11.920Z,2.60
2019-01-31T11:46:24.143Z,2.08
2019-01-31T11:49:09.967Z,2.33
2019-01-31T11:52:22.208Z,1.45
2019-01-31T11:55:21.833Z,2.53
2019-01-31T11:58:26.848Z,1.72
2019-01-31T12:00:56.971Z,2.25
2019-01-31T12:03:27.301Z,2.15
2019-01-31T12:05:57.419Z,2.37
2019-01-31T12:08:27.568Z,2.73
2019-01-31T12:10:58.399Z,1.62
2019-01-31T12:13:28.567Z,1.92
2019-01-31T12:15:58.683Z,2.30
2019-01-31T12:18:29.751Z,2.07
2019-01-31T12:20:59.875Z,1.75
2019-01-31T12:23:32.286Z,2.27
2019-01-31T12:26:01.791Z,1.57
2019-01-31T12:28:32.895Z,1.95
2019-01-31T12:31:03.319Z,1.70
2019-01-31T12:33:33.550Z,1.17
2019-01-31T12:36:03.755Z,1.85
2019-01-31T12:38:36.906Z,1.93
2019-01-31T12:41:05.691Z,1.00
2019-01-31T12:43:35.836Z,2.05
2019-01-31T12:46:05.976Z,1.43
2019-01-31T12:48:36.129Z,2.23
2019-01-31T12:51:06.248Z,2.25
2019-01-31T12:53:37.447Z,1.27
2019-01-31T12:56:07.581Z,1.47
2019-01-31T12:58:37.735Z,1.47
2019-01-31T13:01:08.159Z,1.67
2019-01-31T13:03:38.779Z,1.00
2019-01-31T13:06:08.903Z,1.87
2019-01-31T13:08:39.039Z,1.63
2019-01-31T13:11:09.403Z,1.12
2019-01-31T13:13:45.849Z,1.62
2019-01-31T13:16:12.367Z,0.70
2019-01-31T13:18:42.975Z,1.47
2019-01-31T13:21:13.739Z,1.45
2019-01-31T13:23:43.856Z,1.37
2019-01-31T13:26:14.004Z,1.57
2019-01-31T13:28:44.123Z,0.90
2019-01-31T13:31:14.255Z,1.35
2019-01-31T13:33:46.722Z,0.98
2019-01-31T13:36:16.574Z,1.82
2019-01-31T13:38:46.683Z,1.72
2019-01-31T13:41:17.811Z,1.98
2019-01-31T13:43:57.384Z,2.02
2019-01-31T13:46:20.064Z,2.58
2019-01-31T13:48:50.287Z,1.20
2019-01-31T13:51:20.440Z,0.72
2019-01-31T13:53:50.560Z,1.60
2019-01-31T13:56:20.928Z,1.45
2019-01-31T13:58:51.052Z,2.12
2019-01-31T14:01:21.195Z,0.77
2019-01-31T14:03:51.326Z,1.00
2019-01-31T14:06:21.459Z,0.97
2019-01-31T14:08:51.617Z,1.37
2019-01-31T14:11:22.219Z,0.85
2019-01-31T14:13:52.348Z,1.90
2019-01-31T14:16:22.491Z,1.40
2019-01-31T14:18:53.495Z,1.30
2019-01-31T14:21:23.871Z,2.17
2019-01-31T14:23:54.227Z,2.00
2019-01-31T14:26:24.383Z,0.82
2019-01-31T14:28:54.509Z,1.62
2019-01-31T14:31:24.642Z,1.62
2019-01-31T14:33:54.875Z,1.70
2019-01-31T14:36:25.171Z,2.12
2019-01-31T14:38:56.231Z,2.25
2019-01-31T14:41:26.363Z,2.10
2019-01-31T14:43:56.503Z,1.05
2019-01-31T14:46:26.663Z,1.30
2019-01-31T14:48:56.790Z,1.35
2019-01-31T14:51:26.928Z,1.37
2019-01-31T14:53:57.987Z,1.07
2019-01-31T14:56:28.263Z,2.58
2019-01-31T14:58:58.415Z,1.47
2019-01-31T15:01:29.584Z,0.75
2019-01-31T15:03:59.791Z,1.60
2019-01-31T15:06:29.907Z,1.92
2019-01-31T15:09:00.127Z,0.90
2019-01-31T15:11:30.311Z,1.80
2019-01-31T15:14:00.567Z,1.85
2019-01-31T15:16:32.255Z,2.20
2019-01-31T15:19:02.408Z,1.80
2019-01-31T15:21:32.546Z,2.13
2019-01-31T15:24:02.996Z,1.85
2019-01-31T15:26:33.118Z,2.20
2019-01-31T15:29:03.908Z,1.23
2019-01-31T15:31:35.060Z,1.75
2019-01-31T15:34:05.331Z,2.00
2019-01-31T15:36:36.183Z,1.10
2019-01-31T15:39:08.536Z,1.13
2019-01-31T15:41:39.333Z,1.77
2019-01-31T15:44:09.503Z,1.85
2019-01-31T15:46:40.311Z,1.05
2019-01-31T15:49:10.443Z,1.55
2019-01-31T15:51:40.571Z,1.85
2019-01-31T15:54:11.619Z,0.80
2019-01-31T15:56:41.811Z,1.12
2019-01-31T15:59:12.019Z,2.10
2019-01-31T16:01:42.133Z,0.93
2019-01-31T16:04:12.291Z,1.20
2019-01-31T16:06:42.421Z,2.83
2019-01-31T16:09:13.234Z,2.17
2019-01-31T16:11:43.442Z,1.32
2019-01-31T16:14:13.605Z,1.25
2019-01-31T16:16:43.759Z,0.93
2019-01-31T16:19:13.862Z,1.27
2019-01-31T16:21:43.979Z,2.62
2019-01-31T16:24:14.902Z,1.85
2019-01-31T16:26:45.050Z,0.82
2019-01-31T16:29:18.020Z,1.50
2019-01-31T16:31:46.959Z,1.90
2019-01-31T16:34:17.097Z,3.85
2019-01-31T16:36:48.203Z,2.30
2019-01-31T16:39:18.331Z,1.06
2019-01-31T16:41:48.482Z,2.35
2019-01-31T16:44:18.602Z,1.60
2019-01-31T16:46:49.527Z,1.47
2019-01-31T16:49:19.655Z,0.95
2019-01-31T16:51:49.880Z,1.87
2019-01-31T16:54:20.000Z,0.85
2019-01-31T16:56:50.236Z,1.80
2019-01-31T16:59:20.387Z,1.67
2019-01-31T17:01:50.691Z,1.50
2019-01-31T17:04:20.764Z,2.05
2019-01-31T17:06:50.907Z,2.92
2019-01-31T17:09:21.023Z,1.17
2019-01-31T17:11:51.157Z,1.10
2019-01-31T17:14:21.275Z,1.60
2019-01-31T17:16:54.023Z,1.05
2019-01-31T17:19:23.179Z,1.30
2019-01-31T17:21:53.412Z,0.97
2019-01-31T17:24:23.552Z,1.67
2019-01-31T17:26:54.182Z,3.20
2019-01-31T17:29:24.294Z,1.42
2019-01-31T17:31:54.439Z,2.03
2019-01-31T17:34:24.570Z,1.07
2019-01-31T17:36:54.699Z,1.20
2019-01-31T17:39:24.827Z,1.82
2019-01-31T17:41:54.955Z,0.95
2019-01-31T17:44:25.103Z,1.43
2019-01-31T17:46:55.241Z,1.35
2019-01-31T17:49:25.395Z,1.03
2019-01-31T17:51:56.494Z,1.53
2019-01-31T17:54:26.640Z,2.58
2019-01-31T17:56:57.683Z,1.57
2019-01-31T17:59:27.948Z,1.73
2019-01-31T18:01:58.087Z,1.05
2019-01-31T18:04:28.227Z,2.70
2019-01-31T18:06:58.663Z,2.95
2019-01-31T18:09:28.787Z,1.60
2019-01-31T18:11:58.932Z,0.68
2019-01-31T18:14:29.052Z,1.25
2019-01-31T18:16:59.183Z,1.30
2019-01-31T18:19:29.331Z,1.45
2019-01-31T18:21:59.487Z,1.65
2019-01-31T18:24:29.627Z,1.13
2019-01-31T18:26:59.747Z,1.95
2019-01-31T18:29:29.875Z,1.50
2019-01-31T18:32:00.024Z,1.75
2019-01-31T18:34:30.160Z,2.10
2019-01-31T18:37:00.313Z,1.95
2019-01-31T18:39:31.411Z,1.00
2019-01-31T18:42:01.555Z,1.55
2019-01-31T18:44:31.760Z,1.47
2019-01-31T18:47:02.003Z,2.08
2019-01-31T18:49:32.147Z,1.87
2019-01-31T18:52:02.284Z,1.87
2019-01-31T18:54:32.408Z,1.15
2019-01-31T18:57:02.559Z,2.12
2019-01-31T18:59:32.897Z,1.10
2019-01-31T19:02:03.107Z,1.75
2019-01-31T19:04:33.215Z,2.00
2019-01-31T19:07:04.384Z,1.90
2019-01-31T19:09:34.568Z,1.95
2019-01-31T19:12:04.716Z,1.37
2019-01-31T19:14:35.821Z,1.57
2019-01-31T19:17:05.951Z,1.50
2019-01-31T19:19:36.074Z,2.15
2019-01-31T19:22:07.319Z,1.73
2019-01-31T19:24:37.523Z,1.63
2019-01-31T19:27:07.769Z,1.82
2019-01-31T19:29:38.175Z,1.70
2019-01-31T19:32:08.328Z,2.30
2019-01-31T19:34:38.515Z,1.95
2019-01-31T19:37:09.640Z,1.30
2019-01-31T19:39:39.886Z,1.47
2019-01-31T19:42:10.022Z,1.60
2019-01-31T19:44:41.944Z,2.20
2019-01-31T19:47:12.264Z,0.98
2019-01-31T19:49:43.468Z,1.70
2019-01-31T19:52:13.656Z,1.73
2019-01-31T19:54:43.851Z,1.60
2019-01-31T19:57:14.748Z,2.58
2019-01-31T19:59:46.504Z,2.60
2019-01-31T20:02:17.059Z,1.67
2019-01-31T20:04:47.359Z,1.52
2019-01-31T20:07:17.565Z,1.98
2019-01-31T20:09:48.004Z,1.65
2019-01-31T20:12:18.197Z,2.05
2019-01-31T20:14:48.411Z,1.55
2019-01-31T20:17:18.607Z,1.62
2019-01-31T20:19:48.877Z,1.40
2019-01-31T20:22:19.108Z,2.55
2019-01-31T20:24:50.318Z,1.17
2019-01-31T20:27:20.468Z,1.52
2019-01-31T20:29:50.622Z,1.55
2019-01-31T20:32:20.848Z,1.47
2019-01-31T20:34:51.823Z,2.37
2019-01-31T20:37:22.015Z,2.83
2019-01-31T20:39:52.224Z,2.17
2019-01-31T20:42:22.420Z,2.42
2019-01-31T20:44:52.667Z,1.37
2019-01-31T20:47:22.867Z,2.43
2019-01-31T20:49:53.194Z,2.70
2019-01-31T20:52:24.292Z,1.37
2019-01-31T20:54:54.520Z,2.37
2019-01-31T20:57:24.668Z,1.45
2019-01-31T20:59:55.707Z,2.08
2019-01-31T21:02:25.854Z,2.37
2019-01-31T21:04:56.063Z,1.30
2019-01-31T21:07:27.107Z,3.30
2019-01-31T21:09:59.618Z,2.15
2019-01-31T21:12:29.029Z,1.72
2019-01-31T21:14:59.179Z,2.15
2019-01-31T21:17:29.473Z,2.05
2019-01-31T21:20:00.591Z,1.93
2019-01-31T21:22:30.737Z,2.67
2019-01-31T21:25:00.865Z,2.52
2019-01-31T21:27:30.987Z,1.40
2019-01-31T21:30:01.133Z,1.50
2019-01-31T21:32:31.441Z,1.70
2019-01-31T21:35:01.951Z,2.80
2019-01-31T21:37:32.159Z,2.40
2019-01-31T21:40:02.327Z,2.05
2019-01-31T21:42:34.244Z,1.75
2019-01-31T21:45:07.583Z,1.40
2019-01-31T21:47:37.728Z,2.65
2019-01-31T21:50:10.356Z,1.50
2019-01-31T21:52:41.413Z,2.53
2019-01-31T21:55:11.967Z,2.55
2019-01-31T21:57:42.415Z,2.20
2019-01-31T22:00:18.382Z,1.63
2019-01-31T22:02:48.553Z,2.77
2019-01-31T22:05:19.163Z,2.17
2019-01-31T22:07:49.356Z,1.92
2019-01-31T22:10:19.723Z,2.83
2019-01-31T22:12:49.855Z,2.07
2019-01-31T22:15:30.619Z,1.27
2019-01-31T22:18:00.842Z,2.02
2019-01-31T22:20:31.061Z,1.77
2019-01-31T22:23:01.219Z,2.60
2019-01-31T22:25:32.255Z,1.62
2019-01-31T22:28:02.388Z,2.95
2019-01-31T22:30:34.419Z,2.20
2019-01-31T22:33:05.291Z,1.87
2019-01-31T22:35:35.410Z,2.73
2019-01-31T22:38:06.043Z,1.77
2019-01-31T22:40:36.206Z,1.55
2019-01-31T22:43:06.595Z,1.82
2019-01-31T22:45:36.817Z,1.27
2019-01-31T22:48:07.599Z,1.50
2019-01-31T22:50:37.721Z,1.95
2019-01-31T22:53:07.855Z,2.98
2019-01-31T22:55:38.893Z,1.60
2019-01-31T22:58:09.060Z,1.10
2019-01-31T23:01:35.896Z,1.93
2019-01-31T23:04:07.104Z,2.00
2019-01-31T23:06:37.228Z,2.45
2019-01-31T23:09:10.515Z,2.30
2019-01-31T23:11:40.652Z,1.40
2019-01-31T23:14:10.971Z,2.35
2019-01-31T23:16:41.239Z,2.90
2019-01-31T23:19:11.359Z,2.30
2019-01-31T23:21:41.527Z,1.50
2019-01-31T23:24:12.114Z,1.65
2019-01-31T23:26:42.262Z,1.98
2019-01-31T23:29:12.448Z,3.20
2019-01-31T23:31:43.307Z,2.22
2019-01-31T23:34:13.603Z,1.67
2019-01-31T23:36:43.731Z,2.25
2019-01-31T23:39:14.487Z,1.67
2019-01-31T23:41:44.612Z,1.53
2019-01-31T23:44:14.759Z,2.58
2019-01-31T23:46:44.885Z,2.20
2019-01-31T23:49:15.031Z,2.40
2019-01-31T23:51:45.167Z,3.30
2019-01-31T23:54:15.279Z,1.87
2019-01-31T23:56:45.425Z,2.77
2019-01-31T23:59:15.575Z,2.60
